createdAt,value
2017-11-29T00:00:12.919Z,1.20
2017-11-29T00:02:41.022Z,1.20
2017-11-29T00:05:09.344Z,1.20
2017-11-29T00:07:37.708Z,1.10
2017-11-29T00:10:06.023Z,0.90
2017-11-29T00:12:34.362Z,0.80
2017-11-29T00:15:02.675Z,0.80
2017-11-29T00:17:31.007Z,0.80
2017-11-29T00:19:59.326Z,0.90
2017-11-29T00:22:27.675Z,1.00
2017-11-29T00:24:56.008Z,1.00
2017-11-29T00:27:25.120Z,0.80
2017-11-29T00:29:53.452Z,0.80
2017-11-29T00:32:21.806Z,0.80
2017-11-29T00:34:50.111Z,0.90
2017-11-29T00:37:18.449Z,1.00
2017-11-29T00:39:46.766Z,1.00
2017-11-29T00:42:15.111Z,1.10
2017-11-29T00:44:43.421Z,1.00
2017-11-29T00:47:11.787Z,1.00
2017-11-29T00:49:40.097Z,0.90
2017-11-29T00:52:08.420Z,0.70
2017-11-29T00:54:36.771Z,0.50
2017-11-29T00:57:05.855Z,0.40
2017-11-29T00:59:34.182Z,0.40
2017-11-29T01:02:02.493Z,0.40
2017-11-29T01:04:30.856Z,0.30
2017-11-29T01:06:59.167Z,0.50
2017-11-29T01:09:27.532Z,0.60
2017-11-29T01:11:55.896Z,0.50
2017-11-29T01:14:24.245Z,0.60
2017-11-29T01:16:52.563Z,0.70
2017-11-29T01:19:20.905Z,0.50
2017-11-29T01:21:49.240Z,0.60
2017-11-29T01:24:17.613Z,0.70
2017-11-29T01:26:45.923Z,0.80
2017-11-29T01:29:15.003Z,0.80
2017-11-29T01:31:44.114Z,0.70
2017-11-29T01:34:12.458Z,0.70
2017-11-29T01:36:40.876Z,0.40
2017-11-29T01:39:09.951Z,0.60
2017-11-29T01:41:38.298Z,0.60
2017-11-29T01:44:06.638Z,0.70
2017-11-29T01:46:34.977Z,0.80
2017-11-29T01:49:03.294Z,0.80
2017-11-29T01:51:31.654Z,0.70
2017-11-29T01:53:59.986Z,0.80
2017-11-29T01:56:28.375Z,0.80
2017-11-29T01:58:56.687Z,0.70
2017-11-29T02:01:25.771Z,0.60
2017-11-29T02:03:54.890Z,0.30
2017-11-29T02:06:26.768Z,0.00
2017-11-29T02:08:55.139Z,0.00
2017-11-29T02:11:23.459Z,0.00
2017-11-29T02:13:51.812Z,0.20
2017-11-29T02:16:20.135Z,0.30
2017-11-29T02:18:48.609Z,0.40
2017-11-29T02:21:16.926Z,0.40
2017-11-29T02:23:45.278Z,0.50
2017-11-29T02:26:13.601Z,0.40
2017-11-29T02:28:41.995Z,0.40
2017-11-29T02:31:10.335Z,0.40
2017-11-29T02:33:38.695Z,0.30
2017-11-29T02:36:07.807Z,0.30
2017-11-29T02:38:36.171Z,0.30
2017-11-29T02:41:17.132Z,0.40
2017-11-29T02:43:45.485Z,0.40
2017-11-29T02:46:13.816Z,0.30
2017-11-29T02:48:42.928Z,0.10
2017-11-29T02:51:11.283Z,0.10
2017-11-29T02:53:40.405Z,0.20
2017-11-29T02:56:08.751Z,0.10
2017-11-29T02:58:37.342Z,0.20
2017-11-29T03:01:06.469Z,0.20
2017-11-29T03:03:34.822Z,0.20
2017-11-29T03:06:03.178Z,0.10
2017-11-29T03:08:31.517Z,0.10
2017-11-29T03:10:59.888Z,0.10
2017-11-29T03:13:28.978Z,0.00
2017-11-29T03:15:57.331Z,-0.10
2017-11-29T03:18:26.428Z,0.00
2017-11-29T03:20:54.769Z,-0.10
2017-11-29T03:23:23.116Z,0.10
2017-11-29T03:25:52.216Z,0.10
2017-11-29T03:28:21.316Z,0.20
2017-11-29T03:30:49.652Z,0.20
2017-11-29T03:33:17.965Z,0.40
2017-11-29T03:35:47.066Z,0.60
2017-11-29T03:38:15.411Z,0.60
2017-11-29T03:40:43.753Z,0.70
2017-11-29T03:43:12.102Z,0.70
2017-11-29T03:45:41.298Z,0.80
2017-11-29T03:48:10.384Z,0.80
2017-11-29T03:50:39.486Z,0.70
2017-11-29T03:53:07.822Z,0.70
2017-11-29T03:55:36.173Z,0.80
2017-11-29T03:58:04.477Z,0.80
2017-11-29T04:00:32.797Z,0.80
2017-11-29T04:03:02.009Z,0.60
2017-11-29T04:05:30.329Z,0.60
2017-11-29T04:07:58.663Z,0.60
2017-11-29T04:10:26.987Z,0.40
2017-11-29T04:12:55.352Z,0.50
2017-11-29T04:15:23.667Z,0.40
2017-11-29T04:17:52.787Z,0.50
2017-11-29T04:20:21.102Z,0.50
2017-11-29T04:22:49.442Z,0.30
2017-11-29T04:25:18.548Z,0.30
2017-11-29T04:27:46.909Z,0.20
2017-11-29T04:30:16.001Z,0.30
2017-11-29T04:32:44.368Z,0.30
2017-11-29T04:35:12.677Z,0.30
2017-11-29T04:37:41.787Z,0.40
2017-11-29T04:40:10.118Z,0.30
2017-11-29T04:42:38.520Z,0.30
2017-11-29T04:45:07.594Z,0.30
2017-11-29T04:47:35.902Z,0.20
2017-11-29T04:50:05.001Z,0.50
2017-11-29T04:52:33.378Z,0.50
2017-11-29T04:55:01.727Z,0.50
2017-11-29T04:57:30.065Z,0.60
2017-11-29T04:59:58.427Z,0.60
2017-11-29T05:02:26.759Z,0.50
2017-11-29T05:04:55.103Z,0.50
2017-11-29T05:07:23.425Z,0.50
2017-11-29T05:09:51.767Z,0.50
2017-11-29T05:12:20.093Z,0.30
2017-11-29T05:14:49.201Z,0.30
2017-11-29T05:17:18.299Z,0.40
2017-11-29T05:19:47.418Z,0.40
2017-11-29T05:22:15.749Z,0.40
2017-11-29T05:24:44.853Z,0.50
2017-11-29T05:27:13.196Z,0.50
2017-11-29T05:29:41.523Z,0.50
2017-11-29T05:32:10.636Z,0.60
2017-11-29T05:34:39.720Z,0.70
2017-11-29T05:37:08.824Z,0.60
2017-11-29T05:39:37.929Z,0.50
2017-11-29T05:42:06.285Z,0.50
2017-11-29T05:44:35.386Z,0.10
2017-11-29T05:47:03.734Z,0.10
2017-11-29T05:49:32.045Z,0.00
2017-11-29T05:52:01.142Z,0.30
2017-11-29T05:54:30.232Z,0.20
2017-11-29T05:56:59.354Z,0.10
2017-11-29T05:59:27.668Z,0.10
2017-11-29T06:01:56.005Z,0.10
2017-11-29T06:04:25.087Z,0.40
2017-11-29T06:06:54.199Z,0.50
2017-11-29T06:09:22.522Z,0.50
2017-11-29T06:11:50.868Z,0.60
2017-11-29T06:14:19.178Z,0.70
2017-11-29T06:16:47.526Z,0.70
2017-11-29T06:19:15.846Z,0.80
2017-11-29T06:21:44.183Z,0.80
2017-11-29T06:24:12.512Z,0.80
2017-11-29T06:26:40.863Z,0.80
2017-11-29T06:29:09.178Z,0.50
2017-11-29T06:31:37.559Z,0.40
2017-11-29T06:34:05.879Z,0.50
2017-11-29T06:36:34.200Z,0.50
2017-11-29T06:39:02.553Z,0.30
2017-11-29T06:41:30.870Z,0.20
2017-11-29T06:43:59.207Z,0.20
2017-11-29T06:46:27.522Z,0.30
2017-11-29T06:48:55.869Z,0.40
2017-11-29T06:51:24.187Z,0.30
2017-11-29T06:53:52.542Z,0.30
2017-11-29T06:56:20.891Z,0.40
2017-11-29T06:58:49.233Z,0.40
2017-11-29T07:01:18.314Z,0.40
2017-11-29T07:03:46.650Z,0.40
2017-11-29T07:06:14.958Z,0.30
2017-11-29T07:08:43.270Z,0.30
2017-11-29T07:11:12.382Z,0.30
2017-11-29T07:13:40.712Z,0.20
2017-11-29T07:16:09.059Z,0.30
2017-11-29T07:18:37.386Z,0.30
2017-11-29T07:21:05.713Z,0.30
2017-11-29T07:23:34.031Z,0.30
2017-11-29T07:26:02.375Z,0.40
2017-11-29T07:28:30.695Z,0.30
2017-11-29T07:30:59.030Z,0.30
2017-11-29T07:33:27.345Z,0.40
2017-11-29T07:35:55.708Z,0.40
2017-11-29T07:38:24.019Z,0.50
2017-11-29T07:40:53.103Z,0.60
2017-11-29T07:43:21.440Z,0.60
2017-11-29T07:45:49.761Z,0.50
2017-11-29T07:48:18.112Z,0.50
2017-11-29T07:50:46.418Z,0.50
2017-11-29T07:53:14.755Z,0.50
2017-11-29T07:55:43.076Z,0.50
2017-11-29T07:58:11.410Z,0.50
2017-11-29T08:00:39.734Z,0.60
2017-11-29T08:03:08.082Z,0.60
2017-11-29T08:05:36.400Z,0.60
2017-11-29T08:08:05.502Z,0.70
2017-11-29T08:10:34.581Z,0.80
2017-11-29T08:13:02.910Z,0.80
2017-11-29T08:15:31.225Z,0.90
2017-11-29T08:17:59.564Z,0.90
2017-11-29T08:20:27.882Z,1.00
2017-11-29T08:22:56.982Z,1.10
2017-11-29T08:25:25.297Z,1.10
2017-11-29T08:27:54.410Z,1.20
2017-11-29T08:30:22.748Z,1.20
2017-11-29T08:32:57.691Z,1.10
2017-11-29T08:35:26.022Z,1.10
2017-11-29T08:37:54.350Z,1.00
2017-11-29T08:40:22.713Z,0.90
2017-11-29T08:42:51.057Z,0.90
2017-11-29T08:45:19.450Z,0.90
2017-11-29T08:47:47.792Z,1.00
2017-11-29T08:50:16.167Z,1.00
2017-11-29T08:52:44.504Z,1.20
2017-11-29T08:55:12.869Z,1.30
2017-11-29T08:57:41.247Z,1.30
2017-11-29T09:00:09.592Z,1.50
2017-11-29T09:02:37.944Z,1.60
2017-11-29T09:05:06.299Z,1.60
2017-11-29T09:07:34.627Z,1.50
2017-11-29T09:10:02.960Z,1.70
2017-11-29T09:12:31.322Z,1.70
2017-11-29T09:14:59.646Z,1.80
2017-11-29T09:17:28.765Z,1.90
2017-11-29T09:19:57.121Z,1.90
2017-11-29T09:22:25.479Z,1.90
2017-11-29T09:24:54.608Z,2.00
2017-11-29T09:27:22.954Z,2.00
2017-11-29T09:29:51.297Z,2.10
2017-11-29T09:32:19.683Z,2.20
2017-11-29T09:34:48.008Z,2.20
2017-11-29T09:37:17.131Z,2.40
2017-11-29T09:39:45.458Z,2.40
2017-11-29T09:42:13.831Z,2.40
2017-11-29T09:44:42.199Z,2.50
2017-11-29T09:47:10.563Z,2.60
2017-11-29T09:49:38.912Z,2.70
2017-11-29T09:52:07.600Z,2.70
2017-11-29T09:54:35.940Z,2.80
2017-11-29T09:57:04.320Z,2.90
2017-11-29T09:59:33.402Z,2.90
2017-11-29T10:02:01.757Z,3.00
2017-11-29T10:04:30.175Z,3.10
2017-11-29T10:06:58.531Z,3.20
2017-11-29T10:09:26.866Z,3.20
2017-11-29T10:11:55.306Z,3.00
2017-11-29T10:14:23.643Z,3.10
2017-11-29T10:16:52.041Z,3.10
2017-11-29T10:19:20.390Z,3.10
2017-11-29T10:21:49.533Z,3.30
2017-11-29T10:24:17.888Z,3.30
2017-11-29T10:26:46.219Z,3.30
2017-11-29T10:29:14.571Z,3.30
2017-11-29T10:31:42.915Z,3.40
2017-11-29T10:34:11.258Z,3.60
2017-11-29T10:36:40.357Z,3.60
2017-11-29T10:39:08.704Z,3.60
2017-11-29T10:41:37.023Z,3.60
2017-11-29T10:44:06.138Z,3.70
2017-11-29T10:46:34.459Z,3.60
2017-11-29T10:49:02.830Z,3.70
2017-11-29T10:51:31.161Z,3.70
2017-11-29T10:54:00.239Z,3.80
2017-11-29T10:56:28.598Z,3.80
2017-11-29T10:58:56.911Z,3.80
2017-11-29T11:01:26.025Z,3.80
2017-11-29T11:03:54.354Z,3.80
2017-11-29T11:06:22.722Z,3.90
2017-11-29T11:08:51.058Z,3.80
2017-11-29T11:11:19.418Z,3.90
2017-11-29T11:13:48.522Z,3.90
2017-11-29T11:16:17.636Z,4.00
2017-11-29T11:18:45.976Z,4.00
2017-11-29T11:21:14.333Z,4.00
2017-11-29T11:23:42.688Z,4.10
2017-11-29T11:26:11.696Z,4.00
2017-11-29T11:28:40.048Z,4.00
2017-11-29T11:31:08.419Z,4.00
2017-11-29T11:33:36.782Z,4.00
2017-11-29T11:36:05.108Z,4.00
2017-11-29T11:38:33.587Z,4.10
2017-11-29T11:41:01.925Z,4.10
2017-11-29T11:43:30.286Z,4.20
2017-11-29T11:45:59.389Z,4.40
2017-11-29T11:48:28.492Z,4.20
2017-11-29T11:50:57.597Z,4.20
2017-11-29T11:53:25.956Z,4.20
2017-11-29T11:55:55.047Z,4.20
2017-11-29T11:58:24.229Z,4.20
2017-11-29T12:00:52.568Z,4.20
2017-11-29T12:03:20.931Z,4.10
2017-11-29T12:05:49.271Z,4.20
2017-11-29T12:08:17.625Z,4.10
2017-11-29T12:10:45.971Z,4.20
2017-11-29T12:13:15.100Z,4.30
2017-11-29T12:15:43.418Z,4.30
2017-11-29T12:18:11.815Z,4.20
2017-11-29T12:20:40.935Z,4.40
2017-11-29T12:23:12.430Z,4.40
2017-11-29T12:25:40.792Z,4.30
2017-11-29T12:28:09.125Z,4.30
2017-11-29T12:30:37.479Z,4.30
2017-11-29T12:33:05.865Z,4.40
2017-11-29T12:35:34.210Z,4.50
2017-11-29T12:38:02.547Z,4.50
2017-11-29T12:40:30.883Z,4.50
2017-11-29T12:42:59.229Z,4.60
2017-11-29T12:45:27.568Z,4.60
2017-11-29T12:48:08.537Z,4.60
2017-11-29T12:50:49.449Z,4.50
2017-11-29T12:53:17.782Z,4.50
2017-11-29T12:55:46.131Z,4.40
2017-11-29T12:58:14.475Z,4.40
2017-11-29T13:00:42.853Z,4.40
2017-11-29T13:03:11.923Z,4.20
2017-11-29T13:05:40.263Z,4.30
2017-11-29T13:08:08.588Z,4.20
2017-11-29T13:10:36.931Z,4.30
2017-11-29T13:13:05.273Z,4.30
2017-11-29T13:15:33.619Z,4.30
2017-11-29T13:18:01.975Z,4.20
2017-11-29T13:20:30.297Z,4.20
2017-11-29T13:22:59.397Z,4.10
2017-11-29T13:25:28.478Z,4.20
2017-11-29T13:27:56.807Z,4.10
2017-11-29T13:30:25.119Z,4.10
2017-11-29T13:32:53.494Z,4.10
2017-11-29T13:35:25.068Z,4.10
2017-11-29T13:37:53.397Z,4.00
2017-11-29T13:40:21.699Z,4.20
2017-11-29T13:42:50.051Z,4.20
2017-11-29T13:45:18.360Z,4.20
2017-11-29T13:47:46.732Z,4.20
2017-11-29T13:50:15.061Z,4.30
2017-11-29T13:52:43.378Z,4.30
2017-11-29T13:55:11.728Z,4.30
2017-11-29T13:57:40.053Z,4.30
2017-11-29T14:00:08.396Z,4.30
2017-11-29T14:02:36.752Z,4.20
2017-11-29T14:05:05.871Z,4.20
2017-11-29T14:07:34.949Z,4.20
2017-11-29T14:10:04.038Z,4.20
2017-11-29T14:12:33.115Z,4.20
2017-11-29T14:15:01.445Z,4.20
2017-11-29T14:17:29.751Z,4.20
2017-11-29T14:19:58.090Z,4.20
2017-11-29T14:22:26.402Z,4.20
2017-11-29T14:24:54.714Z,4.10
2017-11-29T14:27:23.043Z,4.10
2017-11-29T14:29:51.349Z,4.10
2017-11-29T14:32:19.682Z,4.10
2017-11-29T14:34:48.384Z,4.10
2017-11-29T14:37:16.703Z,4.10
2017-11-29T14:39:45.002Z,4.10
2017-11-29T14:42:14.094Z,4.20
2017-11-29T14:44:42.411Z,4.10
2017-11-29T14:47:10.778Z,4.10
2017-11-29T14:49:39.103Z,4.00
2017-11-29T14:52:07.414Z,4.00
2017-11-29T14:54:36.510Z,3.80
2017-11-29T14:57:05.593Z,3.80
2017-11-29T14:59:33.922Z,3.80
2017-11-29T15:02:02.244Z,3.70
2017-11-29T15:04:30.573Z,3.80
2017-11-29T15:06:58.883Z,3.70
2017-11-29T15:09:27.212Z,3.80
2017-11-29T15:11:56.292Z,3.60
2017-11-29T15:14:25.422Z,3.40
2017-11-29T15:16:57.056Z,3.40
2017-11-29T15:19:26.158Z,3.50
2017-11-29T15:21:55.250Z,3.50
2017-11-29T15:24:24.377Z,3.40
2017-11-29T15:26:52.698Z,3.30
2017-11-29T15:29:21.044Z,3.30
2017-11-29T15:31:49.382Z,3.30
2017-11-29T15:34:17.746Z,3.30
2017-11-29T15:36:46.864Z,3.20
2017-11-29T15:39:15.178Z,3.20
2017-11-29T15:41:43.509Z,3.20
2017-11-29T15:44:12.584Z,3.10
2017-11-29T15:46:40.915Z,3.10
2017-11-29T15:49:09.219Z,3.10
2017-11-29T15:51:37.557Z,3.10
2017-11-29T15:54:05.882Z,3.10
2017-11-29T15:56:34.218Z,3.10
2017-11-29T15:59:02.527Z,3.00
2017-11-29T16:01:30.871Z,3.00
2017-11-29T16:03:59.174Z,2.80
2017-11-29T16:06:27.523Z,2.70
2017-11-29T16:08:55.853Z,2.60
2017-11-29T16:11:24.203Z,2.60
2017-11-29T16:13:52.764Z,2.50
2017-11-29T16:16:21.102Z,2.50
2017-11-29T16:18:49.424Z,2.50
2017-11-29T16:21:17.762Z,2.70
2017-11-29T16:23:46.899Z,2.50
2017-11-29T16:26:15.983Z,2.50
2017-11-29T16:28:45.083Z,2.40
2017-11-29T16:31:14.167Z,2.60
2017-11-29T16:33:43.277Z,2.50
2017-11-29T16:36:11.591Z,2.50
2017-11-29T16:38:39.921Z,2.20
2017-11-29T16:41:09.006Z,2.00
2017-11-29T16:43:37.339Z,2.00
2017-11-29T16:46:05.672Z,2.20
2017-11-29T16:48:34.782Z,2.20
2017-11-29T16:51:03.888Z,2.10
2017-11-29T16:53:32.980Z,1.80
2017-11-29T16:56:02.052Z,1.70
2017-11-29T16:58:30.391Z,1.70
2017-11-29T17:00:58.706Z,1.50
2017-11-29T17:03:27.038Z,1.60
2017-11-29T17:05:55.346Z,1.50
2017-11-29T17:08:23.683Z,1.40
2017-11-29T17:10:51.996Z,1.50
2017-11-29T17:13:20.337Z,1.70
2017-11-29T17:15:48.642Z,1.70
2017-11-29T17:18:16.950Z,1.80
2017-11-29T17:20:45.286Z,1.60
2017-11-29T17:23:13.600Z,1.60
2017-11-29T17:25:41.928Z,1.60
2017-11-29T17:28:10.227Z,1.60
2017-11-29T17:30:38.596Z,1.30
2017-11-29T17:33:06.899Z,1.30
2017-11-29T17:35:35.233Z,1.40
2017-11-29T17:38:04.297Z,1.40
2017-11-29T17:40:32.623Z,1.40
2017-11-29T17:43:00.917Z,1.60
2017-11-29T17:45:29.243Z,1.50
2017-11-29T17:47:57.551Z,1.50
2017-11-29T17:50:25.907Z,1.40
2017-11-29T17:52:54.978Z,1.40
2017-11-29T17:55:23.292Z,1.40
2017-11-29T17:57:51.627Z,1.40
2017-11-29T18:00:19.960Z,1.30
2017-11-29T18:02:48.315Z,1.20
2017-11-29T18:05:17.384Z,0.90
2017-11-29T18:07:45.718Z,0.90
2017-11-29T18:10:14.034Z,0.90
2017-11-29T18:12:42.371Z,0.90
2017-11-29T18:15:10.695Z,0.90
2017-11-29T18:17:39.034Z,0.90
2017-11-29T18:20:07.343Z,0.90
2017-11-29T18:22:35.693Z,1.00
2017-11-29T18:25:04.033Z,1.00
2017-11-29T18:27:32.382Z,0.90
2017-11-29T18:30:00.692Z,0.70
2017-11-29T18:32:29.052Z,0.70
2017-11-29T18:34:57.362Z,0.80
2017-11-29T18:37:25.686Z,0.80
2017-11-29T18:39:54.040Z,0.80
2017-11-29T18:42:22.359Z,0.60
2017-11-29T18:44:50.707Z,0.60
2017-11-29T18:47:19.053Z,0.60
2017-11-29T18:49:47.416Z,0.50
2017-11-29T18:52:15.745Z,0.60
2017-11-29T18:54:44.858Z,0.50
2017-11-29T18:57:13.196Z,0.50
2017-11-29T18:59:41.537Z,0.30
2017-11-29T19:02:09.860Z,0.20
2017-11-29T19:04:38.213Z,0.20
2017-11-29T19:07:06.523Z,0.30
2017-11-29T19:09:34.848Z,0.30
2017-11-29T19:12:03.243Z,0.30
2017-11-29T19:14:31.563Z,0.30
2017-11-29T19:16:59.915Z,0.40
2017-11-29T19:19:29.011Z,0.00
2017-11-29T19:21:58.169Z,-0.10
2017-11-29T19:24:26.510Z,-0.10
2017-11-29T19:26:54.851Z,-0.10
2017-11-29T19:29:23.166Z,0.10
2017-11-29T19:31:51.502Z,0.10
2017-11-29T19:34:20.611Z,0.00
2017-11-29T19:36:49.714Z,0.00
2017-11-29T19:39:18.801Z,-0.10
2017-11-29T19:41:47.906Z,-0.20
2017-11-29T19:44:17.027Z,-0.40
2017-11-29T19:46:45.381Z,-0.40
2017-11-29T19:49:14.479Z,-0.50
2017-11-29T19:51:43.594Z,-0.50
2017-11-29T19:54:11.923Z,-0.50
2017-11-29T19:56:40.275Z,-0.40
2017-11-29T19:59:08.598Z,-0.30
2017-11-29T20:01:36.943Z,-0.40
2017-11-29T20:04:05.271Z,-0.40
2017-11-29T20:06:33.627Z,-0.30
2017-11-29T20:09:01.945Z,-0.30
2017-11-29T20:11:30.306Z,-0.30
2017-11-29T20:13:58.641Z,-0.40
2017-11-29T20:16:27.014Z,-0.40
2017-11-29T20:18:55.334Z,-0.40
2017-11-29T20:21:24.446Z,-0.40
2017-11-29T20:23:52.778Z,-0.40
2017-11-29T20:26:21.144Z,-0.60
2017-11-29T20:28:49.497Z,-0.70
2017-11-29T20:31:17.847Z,-0.90
2017-11-29T20:33:46.926Z,-1.40
2017-11-29T20:36:15.285Z,-1.40
2017-11-29T20:38:43.622Z,-1.40
2017-11-29T20:41:11.967Z,-1.30
2017-11-29T20:43:40.331Z,-1.10
2017-11-29T20:46:08.679Z,-1.10
2017-11-29T20:48:37.003Z,-1.00
2017-11-29T20:51:05.363Z,-0.90
2017-11-29T20:53:34.561Z,-0.80
2017-11-29T20:56:02.889Z,-0.80
2017-11-29T20:58:31.258Z,-0.80
2017-11-29T21:01:00.345Z,-0.90
2017-11-29T21:03:29.455Z,-1.00
2017-11-29T21:05:57.797Z,-1.00
2017-11-29T21:08:26.143Z,-1.00
2017-11-29T21:10:54.469Z,-0.90
2017-11-29T21:13:22.822Z,-0.90
2017-11-29T21:15:51.147Z,-0.90
2017-11-29T21:18:20.253Z,-0.80
2017-11-29T21:20:48.579Z,-0.80
2017-11-29T21:23:16.950Z,-0.80
2017-11-29T21:25:45.283Z,-0.80
2017-11-29T21:28:14.366Z,-0.90
2017-11-29T21:30:42.702Z,-0.90
2017-11-29T21:33:11.033Z,-0.90
2017-11-29T21:35:40.145Z,-0.90
2017-11-29T21:38:08.470Z,-0.90
2017-11-29T21:40:36.813Z,-0.80
2017-11-29T21:43:05.133Z,-0.90
2017-11-29T21:45:33.510Z,-0.90
2017-11-29T21:48:01.834Z,-0.90
2017-11-29T21:50:30.186Z,-0.90
2017-11-29T21:52:58.516Z,-1.00
2017-11-29T21:55:26.862Z,-0.90
2017-11-29T21:57:55.951Z,-0.90
2017-11-29T22:00:25.058Z,-1.00
2017-11-29T22:02:54.142Z,-0.90
2017-11-29T22:05:22.516Z,-0.90
2017-11-29T22:07:51.616Z,-0.80
2017-11-29T22:10:19.962Z,-0.80
2017-11-29T22:12:48.309Z,-0.80
2017-11-29T22:15:16.664Z,-0.80
2017-11-29T22:17:45.031Z,-0.80
2017-11-29T22:20:14.126Z,-0.80
2017-11-29T22:22:42.464Z,-0.90
2017-11-29T22:25:10.798Z,-0.80
2017-11-29T22:27:39.903Z,-0.90
2017-11-29T22:30:08.243Z,-1.00
2017-11-29T22:32:36.599Z,-1.00
2017-11-29T22:35:04.930Z,-1.00
2017-11-29T22:37:34.038Z,-1.10
2017-11-29T22:40:02.381Z,-1.10
2017-11-29T22:42:30.721Z,-1.20
2017-11-29T22:44:59.047Z,-1.50
2017-11-29T22:47:27.391Z,-1.50
2017-11-29T22:49:55.736Z,-1.30
2017-11-29T22:52:24.080Z,-1.10
2017-11-29T22:54:52.398Z,-1.10
2017-11-29T22:57:20.742Z,-1.20
2017-11-29T22:59:49.062Z,-1.10
2017-11-29T23:02:17.399Z,-1.00
2017-11-29T23:04:45.723Z,-1.00
2017-11-29T23:07:14.068Z,-0.90
2017-11-29T23:09:43.160Z,-0.90
2017-11-29T23:12:11.528Z,-0.90
2017-11-29T23:14:39.855Z,-1.00
2017-11-29T23:17:08.205Z,-1.10
2017-11-29T23:19:36.533Z,-1.30
2017-11-29T23:22:04.871Z,-1.30
2017-11-29T23:24:33.201Z,-1.10
2017-11-29T23:27:01.557Z,-1.10
2017-11-29T23:29:29.883Z,-1.00
2017-11-29T23:31:58.219Z,-1.10
2017-11-29T23:34:26.560Z,-1.00
2017-11-29T23:36:55.690Z,-0.90
2017-11-29T23:39:23.998Z,-1.00
2017-11-29T23:41:52.322Z,-1.00
2017-11-29T23:44:20.659Z,-1.00
2017-11-29T23:46:48.982Z,-1.20
2017-11-29T23:49:17.346Z,-1.20
2017-11-29T23:51:46.427Z,-1.20
2017-11-29T23:54:14.771Z,-1.20
2017-11-29T23:56:43.101Z,-1.10
2017-11-29T23:59:12.216Z,-0.90
